Observation data for Northwest San Angelo on 12/09/2018      Previous  Date  Next       Current Mesonet Observations  Soil Data  Daily Summary Page  Observations in Plain Language
KASU 090600Z 00003KT M01/M02 A3032 RMK A01 T10051021  RH  090%=      5-min Rain = 0
KASU 090605Z 01003KT M00/M02 A3031 RMK A01 T10031019  RH  090%=      5-min Rain = 0
KASU 090610Z 01003KT M00/M02 A3032 RMK A01 T10021018  RH  090%=      5-min Rain = 0
KASU 090615Z 00002KT M00/M02 A3032 RMK A01 T10041020  RH  090%=      5-min Rain = 0
KASU 090620Z 35001KT M01/M02 A3032 RMK A01 T10061022  RH  090%=      5-min Rain = 0
KASU 090625Z 31001KT M01/M02 A3032 RMK A01 T10071023  RH  090%=      5-min Rain = 0
KASU 090630Z 31002KT M01/M03 A3032 RMK A01 T10091025  RH  090%=      5-min Rain = 0
KASU 090635Z 28001KT M01/M03 A3032 RMK A01 T10121028  RH  090%=      5-min Rain = 0
KASU 090640Z 24002KT M01/M03 A3032 RMK A01 T10111027  RH  090%=      5-min Rain = 0
KASU 090645Z 26001KT M01/M03 A3032 RMK A01 T10111026  RH  090%=      5-min Rain = 0
KASU 090650Z 26002KT M01/M02 A3032 RMK A01 T10091024  RH  090%=      5-min Rain = 0
KASU 090655Z 27002KT M01/M03 A3032 RMK A01 T10101025  RH  090%=      5-min Rain = 0
KASU 090700Z 27001KT M01/M02 A3032 RMK A01 T10091024  RH  090%=      5-min Rain = 0
KASU 090705Z 27001KT M01/M02 A3031 RMK A01 T10061021  RH  090%=      5-min Rain = 0
KASU 090710Z 27001KT M01/M02 A3031 RMK A01 T10061021  RH  090%=      5-min Rain = 0
KASU 090715Z 28002KT M01/M02 A3031 RMK A01 T10061021  RH  090%=      5-min Rain = 0
KASU 090720Z 28001KT M01/M03 A3031 RMK A01 T10131028  RH  090%=      5-min Rain = 0
KASU 090725Z 27002KT M01/M03 A3031 RMK A01 T10131028  RH  090%=      5-min Rain = 0
KASU 090730Z 27002KT M02/M03 A3031 RMK A01 T10151030  RH  090%=      5-min Rain = 0
KASU 090735Z 27002KT M01/M03 A3031 RMK A01 T10141029  RH  090%=      5-min Rain = 0
KASU 090740Z 27002KT M02/M03 A3031 RMK A01 T10161031  RH  090%=      5-min Rain = 0
KASU 090745Z 27002KT M02/M03 A3031 RMK A01 T10161030  RH  090%=      5-min Rain = 0
KASU 090750Z 27002KT M02/M03 A3031 RMK A01 T10151029  RH  090%=      5-min Rain = 0
KASU 090755Z 26002KT M02/M03 A3031 RMK A01 T10161031  RH  090%=      5-min Rain = 0
KASU 090800Z 26001KT M02/M03 A3031 RMK A01 T10161031  RH  090%=      5-min Rain = 0
KASU 090805Z 26001KT M01/M03 A3031 RMK A01 T10121026  RH  091%=      5-min Rain = 0
KASU 090810Z 26000KT M01/M02 A3031 RMK A01 T10081022  RH  091%=      5-min Rain = 0
KASU 090815Z 00000KT M01/M02 A303 RMK A01 T10051019  RH  091%=      5-min Rain = 0
KASU 090820Z 00000KT M01/M02 A303 RMK A01 T10081022  RH  091%=      5-min Rain = 0
KASU 090825Z 00000KT M01/M02 A303 RMK A01 T10081022  RH  091%=      5-min Rain = 0
KASU 090830Z 35001KT M01/M02 A303 RMK A01 T10071021  RH  091%=      5-min Rain = 0
KASU 090835Z 35001KT M01/M03 A303 RMK A01 T10111025  RH  091%=      5-min Rain = 0
KASU 090840Z 00001KT M02/M03 A303 RMK A01 T10161030  RH  091%=      5-min Rain = 0
KASU 090845Z 36002KT M01/M03 A303 RMK A01 T10111025  RH  091%=      5-min Rain = 0
KASU 090850Z 35003KT M02/M03 A303 RMK A01 T10181032  RH  091%=      5-min Rain = 0
KASU 090855Z 35004KT M02/M03 A3029 RMK A01 T10161030  RH  091%=      5-min Rain = 0
KASU 090900Z 35003KT M01/M03 A3029 RMK A01 T10131027  RH  091%=      5-min Rain = 0
KASU 090905Z 33003KT M02/M03 A303 RMK A01 T10171030  RH  091%=      5-min Rain = 0
KASU 090910Z 33004KT M02/M03 A303 RMK A01 T10161030  RH  091%=      5-min Rain = 0
KASU 090915Z 32005KT M01/M03 A303 RMK A01 T10141028  RH  091%=      5-min Rain = 0
KASU 090920Z 32005KT M01/M03 A303 RMK A01 T10141028  RH  091%=      5-min Rain = 0
KASU 090925Z 32005KT M02/M03 A303 RMK A01 T10151028  RH  091%=      5-min Rain = 0
KASU 090930Z 32004KT M01/M03 A303 RMK A01 T10141027  RH  091%=      5-min Rain = 0
KASU 090935Z 31004KT M01/M03 A303 RMK A01 T10141028  RH  091%=      5-min Rain = 0
KASU 090940Z 32004KT M02/M03 A303 RMK A01 T10171030  RH  091%=      5-min Rain = 0
KASU 090945Z 32004KT M02/M03 A303 RMK A01 T10171031  RH  091%=      5-min Rain = 0
KASU 090950Z 32004KT M02/M03 A303 RMK A01 T10181032  RH  091%=      5-min Rain = 0
KASU 090955Z 31004KT M02/M03 A303 RMK A01 T10181032  RH  091%=      5-min Rain = 0
KASU 091000Z 31004KT M01/M03 A303 RMK A01 T10141028  RH  091%=      5-min Rain = 0
KASU 091005Z 30004KT M01/M03 A303 RMK A01 T10111025  RH  091%=      5-min Rain = 0
KASU 091010Z 29004KT M01/M02 A303 RMK A01 T10101024  RH  091%=      5-min Rain = 0
KASU 091015Z 29005KT M01/M02 A303 RMK A01 T10101024  RH  091%=      5-min Rain = 0
KASU 091020Z 29005KT M01/M02 A303 RMK A01 T10101024  RH  091%=      5-min Rain = 0
KASU 091025Z 29005KT M01/M02 A3031 RMK A01 T10111024  RH  091%=      5-min Rain = 0
KASU 091030Z 29004KT M01/M03 A3031 RMK A01 T10111025  RH  091%=      5-min Rain = 0
KASU 091035Z 29005KT M01/M03 A3031 RMK A01 T10111025  RH  091%=      5-min Rain = 0
KASU 091040Z 29005KT M01/M02 A3031 RMK A01 T10111024  RH  091%=      5-min Rain = 0
KASU 091045Z 29005KT M01/M03 A3031 RMK A01 T10111025  RH  091%=      5-min Rain = 0
KASU 091050Z 29006KT M01/M03 A3031 RMK A01 T10111025  RH  091%=      5-min Rain = 0
KASU 091055Z 29005KT M01/M02 A3031 RMK A01 T10101024  RH  091%=      5-min Rain = 0
KASU 091100Z 29005KT M01/M02 A3031 RMK A01 T10101024  RH  091%=      5-min Rain = 0
KASU 091105Z 29005KT M01/M02 A3031 RMK A01 T10101024  RH  091%=      5-min Rain = 0
KASU 091110Z 29005KT M01/M03 A3031 RMK A01 T10111025  RH  091%=      5-min Rain = 0
KASU 091115Z 29004KT M01/M03 A3032 RMK A01 T10121027  RH  091%=      5-min Rain = 0
KASU 091120Z 29004KT M01/M03 A3032 RMK A01 T10141029  RH  090%=      5-min Rain = 0
KASU 091125Z 29005KT M02/M03 A3032 RMK A01 T10161030  RH  090%=      5-min Rain = 0
KASU 091130Z 30005KT M02/M03 A3032 RMK A01 T10161030  RH  090%=      5-min Rain = 0
KASU 091135Z 30005KT M02/M03 A3032 RMK A01 T10171031  RH  090%=      5-min Rain = 0
KASU 091140Z 30005KT M02/M03 A3032 RMK A01 T10171031  RH  090%=      5-min Rain = 0
KASU 091145Z 30005KT M02/M03 A3033 RMK A01 T10171032  RH  090%=      5-min Rain = 0
KASU 091150Z 31005KT M02/M03 A3033 RMK A01 T10181032  RH  090%=      5-min Rain = 0
KASU 091155Z 31005KT M02/M03 A3033 RMK A01 T10171032  RH  090%=      5-min Rain = 0
KASU 091200Z 31005KT M02/M03 A3033 RMK A01 T10161030  RH  091%=      5-min Rain = 0
KASU 091205Z 31006KT M02/M03 A3032 RMK A01 T10151030  RH  091%=      5-min Rain = 0
KASU 091210Z 31006KT M01/M03 A3032 RMK A01 T10141028  RH  091%=      5-min Rain = 0
KASU 091215Z 31005KT M01/M03 A3033 RMK A01 T10121027  RH  091%=      5-min Rain = 0
KASU 091220Z 31004KT M01/M03 A3033 RMK A01 T10131028  RH  091%=      5-min Rain = 0
KASU 091225Z 31005KT M01/M03 A3033 RMK A01 T10141029  RH  091%=      5-min Rain = 0
KASU 091230Z 31005KT M01/M03 A3033 RMK A01 T10141028  RH  090%=      5-min Rain = 0
KASU 091235Z 31005KT M01/M03 A3034 RMK A01 T10131028  RH  091%=      5-min Rain = 0
KASU 091240Z 31005KT M01/M03 A3034 RMK A01 T10131028  RH  090%=      5-min Rain = 0
KASU 091245Z 31005KT M02/M03 A3034 RMK A01 T10151030  RH  090%=      5-min Rain = 0
KASU 091250Z 31004KT M02/M03 A3034 RMK A01 T10161031  RH  090%=      5-min Rain = 0
KASU 091255Z 31005KT M02/M03 A3034 RMK A01 T10151030  RH  090%=      5-min Rain = 0
KASU 091300Z 32005KT M02/M03 A3034 RMK A01 T10151030  RH  090%=      5-min Rain = 0
KASU 091305Z 31004KT M02/M03 A3034 RMK A01 T10171031  RH  090%=      5-min Rain = 0
KASU 091310Z 31004KT M02/M03 A3034 RMK A01 T10191033  RH  090%=      5-min Rain = 0
KASU 091315Z 32005KT M02/M04 A3035 RMK A01 T10201035  RH  090%=      5-min Rain = 0
KASU 091320Z 32005KT M02/M04 A3035 RMK A01 T10201035  RH  090%=      5-min Rain = 0
KASU 091325Z 32005KT M02/M04 A3035 RMK A01 T10211036  RH  090%=      5-min Rain = 0
KASU 091330Z 32005KT M02/M04 A3035 RMK A01 T10211035  RH  090%=      5-min Rain = 0
KASU 091335Z 32005KT M02/M04 A3035 RMK A01 T10201035  RH  090%=      5-min Rain = 0
KASU 091340Z 31004KT M02/M04 A3035 RMK A01 T10211035  RH  090%=      5-min Rain = 0
KASU 091345Z 32005KT M02/M04 A3036 RMK A01 T10201035  RH  090%=      5-min Rain = 0
KASU 091350Z 31005KT M02/M03 A3036 RMK A01 T10181033  RH  090%=      5-min Rain = 0
KASU 091355Z 32005KT M02/M03 A3036 RMK A01 T10151030  RH  090%=      5-min Rain = 0
KASU 091400Z 32005KT M01/M03 A3036 RMK A01 T10131028  RH  090%=      5-min Rain = 0
KASU 091405Z 32005KT M01/M03 A3036 RMK A01 T10111026  RH  090%=      5-min Rain = 0
KASU 091410Z 31005KT M01/M02 A3037 RMK A01 T10081023  RH  090%=      5-min Rain = 0
KASU 091415Z 31005KT M01/M02 A3037 RMK A01 T10051021  RH  090%=      5-min Rain = 0
KASU 091420Z 31005KT M00/M02 A3037 RMK A01 T10031019  RH  090%=      5-min Rain = 0
KASU 091425Z 31005KT M00/M02 A3037 RMK A01 T10011018  RH  090%=      5-min Rain = 0
KASU 091430Z 31005KT 00/02 A3038 RMK A01 T00000-16  RH  089%=      5-min Rain = 0
KASU 091435Z 32006KT 00/M02 A3037 RMK A01 T00011015  RH  089%=      5-min Rain = 0
KASU 091440Z 32007KT 00/M02 A3038 RMK A01 T00031015  RH  089%=      5-min Rain = 0
KASU 091445Z 32007KT 00/M02 A3038 RMK A01 T00031015  RH  089%=      5-min Rain = 0
KASU 091450Z 32007KT 00/M01 A3038 RMK A01 T00041014  RH  088%=      5-min Rain = 0
KASU 091455Z 31006KT 01/M01 A3038 RMK A01 T00061012  RH  088%=      5-min Rain = 0
KASU 091500Z 31005KT 01/M01 A3039 RMK A01 T00081011  RH  088%=      5-min Rain = 0.01
KASU 091505Z 31006KT 01/M01 A3039 RMK A01 T00091011  RH  088%=      5-min Rain = 0
KASU 091510Z 31005KT 01/M01 A3039 RMK A01 T00111009  RH  087%=      5-min Rain = 0
KASU 091515Z 31006KT 01/M01 A3039 RMK A01 T00121009  RH  087%=      5-min Rain = 0
KASU 091520Z 31006KT 01/M01 A304 RMK A01 T00141008  RH  086%=      5-min Rain = 0
KASU 091525Z 31006KT 02/M01 A304 RMK A01 T00161008  RH  085%=      5-min Rain = 0
KASU 091530Z 32006KT 02/M01 A304 RMK A01 T00181008  RH  084%=      5-min Rain = 0
KASU 091535Z 32006KT 02/M01 A304 RMK A01 T00221007  RH  082%=      5-min Rain = 0
KASU 091540Z 31006KT 02/M01 A304 RMK A01 T00231009  RH  080%=      5-min Rain = 0
KASU 091545Z 32005KT 03/M01 A304 RMK A01 T00261009  RH  078%=      5-min Rain = 0
KASU 091550Z 33006KT 03/M01 A304 RMK A01 T00281012  RH  076%=      5-min Rain = 0
KASU 091555Z 33006KT 03/M01 A304 RMK A01 T00321009  RH  075%=      5-min Rain = 0
KASU 091600Z 34006KT 04/M01 A304 RMK A01 T00351014  RH  071%=      5-min Rain = 0
KASU 091605Z 34006KT 04/M02 A304 RMK A01 T00381019  RH  067%=      5-min Rain = 0
KASU 091610Z 00007KT 04/M03 A3041 RMK A01 T00431025  RH  062%=      5-min Rain = 0
KASU 091615Z 35006KT 05/M03 A3041 RMK A01 T00461028  RH  059%=      5-min Rain = 0
KASU 091620Z 34007KT 05/M03 A3041 RMK A01 T00491030  RH  057%=      5-min Rain = 0
KASU 091625Z 35007KT 05/M03 A3041 RMK A01 T00511032  RH  055%=      5-min Rain = 0
KASU 091630Z 35008KT 05/M04 A3041 RMK A01 T00521039  RH  052%=      5-min Rain = 0
KASU 091635Z 35007KT 06/M04 A3041 RMK A01 T00561037  RH  051%=      5-min Rain = 0
KASU 091640Z 34008KT 06/M04 A3041 RMK A01 T00551038  RH  051%=      5-min Rain = 0
KASU 091645Z 33008KT 06/M03 A3041 RMK A01 T00571031  RH  054%=      5-min Rain = 0
KASU 091650Z 33009KT 06/M04 A3041 RMK A01 T00611035  RH  051%=      5-min Rain = 0
KASU 091655Z 33010KT 06/M04 A3041 RMK A01 T00611042  RH  048%=      5-min Rain = 0
KASU 091700Z 35008KT 07/M06 A3041 RMK A01 T00661057  RH  041%=      5-min Rain = 0
KASU 091705Z 34009KT 07/M06 A3041 RMK A01 T00671062  RH  039%=      5-min Rain = 0
KASU 091710Z 35008KT 07/M07 A3041 RMK A01 T00691070  RH  036%=      5-min Rain = 0
KASU 091715Z 35007KT 07/M07 A304 RMK A01 T00691074  RH  035%=      5-min Rain = 0
KASU 091720Z 35009KT 07/M07 A304 RMK A01 T00701072  RH  036%=      5-min Rain = 0
KASU 091725Z 36008G13KT 07/M09 A304 RMK A01 T00701088  RH  032%=      5-min Rain = 0
KASU 091730Z 00008KT 07/M09 A304 RMK A01 T00711087  RH  031%=      5-min Rain = 0
KASU 091735Z 35007KT 07/M08 A304 RMK A01 T00721080  RH  033%=      5-min Rain = 0
KASU 091740Z 35008KT 08/M08 A304 RMK A01 T00751081  RH  032%=      5-min Rain = 0
KASU 091745Z 33006KT 07/M07 A304 RMK A01 T00731071  RH  035%=      5-min Rain = 0
KASU 091750Z 34007KT 07/M07 A304 RMK A01 T00741066  RH  036%=      5-min Rain = 0
KASU 091755Z 36005KT 08/M08 A304 RMK A01 T00771075  RH  033%=      5-min Rain = 0
KASU 091800Z 01006KT 08/M07 A3039 RMK A01 T00811068  RH  034%=      5-min Rain = 0
KASU 091805Z 01005G10KT 08/M07 A3039 RMK A01 T00801069  RH  034%=      5-min Rain = 0
KASU 091810Z 00005KT 07/M07 A3039 RMK A01 T00741073  RH  034%=      5-min Rain = 0
KASU 091815Z 35006KT 08/M06 A3039 RMK A01 T00761062  RH  037%=      5-min Rain = 0
KASU 091820Z 35006KT 08/M06 A3039 RMK A01 T00781062  RH  037%=      5-min Rain = 0
KASU 091825Z 36006KT 08/M06 A3038 RMK A01 T00811059  RH  037%=      5-min Rain = 0
KASU 091830Z 36004KT 08/M06 A3038 RMK A01 T00801063  RH  036%=      5-min Rain = 0
KASU 091835Z 36005KT 08/M06 A3037 RMK A01 T00841058  RH  036%=      5-min Rain = 0
KASU 091840Z 02006G11KT 08/M06 A3037 RMK A01 T00841056  RH  037%=      5-min Rain = 0
KASU 091845Z 02006KT 08/M06 A3037 RMK A01 T00811058  RH  037%=      5-min Rain = 0
KASU 091850Z 02006KT 08/M05 A3036 RMK A01 T00821050  RH  039%=      5-min Rain = 0
KASU 091855Z 01005KT 09/M04 A3036 RMK A01 T00891044  RH  039%=      5-min Rain = 0
KASU 091900Z 02005KT 09/M04 A3036 RMK A01 T00911044  RH  038%=      5-min Rain = 0
KASU 091905Z 03005KT 09/M05 A3036 RMK A01 T00871046  RH  039%=      5-min Rain = 0
KASU 091910Z 34005KT 09/M04 A3036 RMK A01 T00881038  RH  041%=      5-min Rain = 0
KASU 091915Z 32006KT 09/M03 A3035 RMK A01 T00881034  RH  042%=      5-min Rain = 0
KASU 091920Z 32007KT 09/M04 A3035 RMK A01 T00861038  RH  041%=      5-min Rain = 0
KASU 091925Z 31008KT 09/M04 A3035 RMK A01 T00861036  RH  042%=      5-min Rain = 0
KASU 091930Z 34007KT 09/M04 A3035 RMK A01 T00901040  RH  040%=      5-min Rain = 0
KASU 091935Z 33006KT 09/M04 A3035 RMK A01 T00911040  RH  040%=      5-min Rain = 0
KASU 091940Z 36006KT 10/M05 A3035 RMK A01 T00951052  RH  035%=      5-min Rain = 0
KASU 091945Z 35006KT 10/M06 A3034 RMK A01 T00951055  RH  034%=      5-min Rain = 0
KASU 091950Z 33005KT 09/M05 A3034 RMK A01 T00921049  RH  037%=      5-min Rain = 0
KASU 091955Z 00005KT 10/M05 A3034 RMK A01 T00951053  RH  035%=      5-min Rain = 0
KASU 092000Z 36005KT 10/M06 A3034 RMK A01 T00951057  RH  034%=      5-min Rain = 0
KASU 092005Z 33006KT 10/M04 A3034 RMK A01 T00981042  RH  037%=      5-min Rain = 0
KASU 092010Z 34004KT 10/M05 A3034 RMK A01 T00971046  RH  036%=      5-min Rain = 0
KASU 092015Z 34005G10KT 10/M04 A3033 RMK A01 T00991037  RH  038%=      5-min Rain = 0
KASU 092020Z 33004KT 10/M04 A3033 RMK A01 T01041038  RH  037%=      5-min Rain = 0
KASU 092025Z 34007KT 10/M04 A3033 RMK A01 T01001043  RH  037%=      5-min Rain = 0
KASU 092030Z 33007KT 10/M04 A3033 RMK A01 T00981037  RH  039%=      5-min Rain = 0
KASU 092035Z 32008KT 09/M04 A3033 RMK A01 T00941039  RH  039%=      5-min Rain = 0
KASU 092040Z 34007KT 10/M04 A3034 RMK A01 T00971037  RH  039%=      5-min Rain = 0
KASU 092045Z 34006KT 10/M04 A3034 RMK A01 T01021036  RH  038%=      5-min Rain = 0
KASU 092050Z 33006KT 10/M04 A3034 RMK A01 T00971036  RH  039%=      5-min Rain = 0
KASU 092055Z 33006KT 10/M03 A3034 RMK A01 T00981029  RH  041%=      5-min Rain = 0
KASU 092100Z 34006KT 10/M03 A3033 RMK A01 T01001031  RH  040%=      5-min Rain = 0
KASU 092105Z 35005KT 10/M04 A3033 RMK A01 T01001037  RH  038%=      5-min Rain = 0
KASU 092110Z 34006KT 10/M03 A3033 RMK A01 T00991032  RH  040%=      5-min Rain = 0
KASU 092115Z 32005KT 10/M03 A3033 RMK A01 T00991029  RH  041%=      5-min Rain = 0
KASU 092120Z 32007G12KT 10/M03 A3033 RMK A01 T00991026  RH  042%=      5-min Rain = 0
KASU 092125Z 33006KT 10/M03 A3033 RMK A01 T00971029  RH  041%=      5-min Rain = 0
KASU 092130Z 32006KT 10/M03 A3033 RMK A01 T00981026  RH  042%=      5-min Rain = 0
KASU 092135Z 33004KT 10/M03 A3033 RMK A01 T01011029  RH  040%=      5-min Rain = 0
KASU 092140Z 33006KT 10/M03 A3033 RMK A01 T00991027  RH  041%=      5-min Rain = 0
KASU 092145Z 33005KT 10/M03 A3032 RMK A01 T00991025  RH  042%=      5-min Rain = 0
KASU 092150Z 32005KT 10/M02 A3032 RMK A01 T00981024  RH  042%=      5-min Rain = 0
KASU 092155Z 31006KT 10/M02 A3032 RMK A01 T00991021  RH  043%=      5-min Rain = 0
KASU 092200Z 31006KT 10/M02 A3032 RMK A01 T00971018  RH  045%=      5-min Rain = 0
KASU 092205Z 32006KT 10/M02 A3032 RMK A01 T00981020  RH  044%=      5-min Rain = 0
KASU 092210Z 33007KT 10/M02 A3033 RMK A01 T00981021  RH  043%=      5-min Rain = 0
KASU 092215Z 33005KT 10/M03 A3033 RMK A01 T00991029  RH  041%=      5-min Rain = 0
KASU 092220Z 33006KT 10/M03 A3033 RMK A01 T00991028  RH  041%=      5-min Rain = 0
KASU 092225Z 34005KT 10/M03 A3033 RMK A01 T00981032  RH  040%=      5-min Rain = 0
KASU 092230Z 33006KT 10/M03 A3033 RMK A01 T00981030  RH  041%=      5-min Rain = 0
KASU 092235Z 33006KT 10/M03 A3033 RMK A01 T00981033  RH  040%=      5-min Rain = 0
KASU 092240Z 32007KT 10/M03 A3033 RMK A01 T00951033  RH  040%=      5-min Rain = 0
KASU 092245Z 34006KT 10/M04 A3033 RMK A01 T00951036  RH  040%=      5-min Rain = 0
KASU 092250Z 35006KT 10/M04 A3032 RMK A01 T00951038  RH  039%=      5-min Rain = 0
KASU 092255Z 34005KT 09/M04 A3032 RMK A01 T00941039  RH  039%=      5-min Rain = 0
KASU 092300Z 35007KT 09/M04 A3033 RMK A01 T00941041  RH  039%=      5-min Rain = 0
KASU 092305Z 34007KT 09/M04 A3033 RMK A01 T00921036  RH  040%=      5-min Rain = 0
KASU 092310Z 35006KT 09/M04 A3033 RMK A01 T00891036  RH  041%=      5-min Rain = 0
KASU 092315Z 34005KT 09/M03 A3033 RMK A01 T00881031  RH  043%=      5-min Rain = 0
KASU 092320Z 34005KT 08/M03 A3033 RMK A01 T00841025  RH  046%=      5-min Rain = 0
KASU 092325Z 33006KT 08/M03 A3033 RMK A01 T00791026  RH  048%=      5-min Rain = 0
KASU 092330Z 32006KT 07/M02 A3033 RMK A01 T00741022  RH  051%=      5-min Rain = 0
KASU 092335Z 32005KT 07/M02 A3033 RMK A01 T00681020  RH  054%=      5-min Rain = 0
KASU 092340Z 33004KT 06/M02 A3033 RMK A01 T00621018  RH  057%=      5-min Rain = 0
KASU 092345Z 33004KT 06/M02 A3033 RMK A01 T00591016  RH  059%=      5-min Rain = 0
KASU 092350Z 33004KT 06/M02 A3034 RMK A01 T00581017  RH  059%=      5-min Rain = 0
KASU 092355Z 33003KT 06/M02 A3034 RMK A01 T00561018  RH  060%=      5-min Rain = 0
KASU 100000Z 33003KT 05/M02 A3034 RMK A01 T00531019  RH  060%=      5-min Rain = 0
KASU 100005Z 33004KT 06/M02 A3034 RMK A01 T00551022  RH  058%=      5-min Rain = 0
KASU 100010Z 34005KT 05/M03 A3035 RMK A01 T00531025  RH  057%=      5-min Rain = 0
KASU 100015Z 33004KT 05/M02 A3035 RMK A01 T00481024  RH  060%=      5-min Rain = 0
KASU 100020Z 33004KT 04/M03 A3035 RMK A01 T00441025  RH  061%=      5-min Rain = 0
KASU 100025Z 34005KT 05/M03 A3035 RMK A01 T00481028  RH  059%=      5-min Rain = 0
KASU 100030Z 34005KT 05/M03 A3035 RMK A01 T00501031  RH  056%=      5-min Rain = 0
KASU 100035Z 34005KT 05/M03 A3035 RMK A01 T00491033  RH  056%=      5-min Rain = 0
KASU 100040Z 34005KT 05/M03 A3035 RMK A01 T00451034  RH  057%=      5-min Rain = 0
KASU 100045Z 35004KT 04/M04 A3036 RMK A01 T00431036  RH  057%=      5-min Rain = 0
KASU 100050Z 35004KT 05/M04 A3036 RMK A01 T00461040  RH  054%=      5-min Rain = 0
KASU 100055Z 35005KT 04/M04 A3036 RMK A01 T00421038  RH  056%=      5-min Rain = 0
KASU 100100Z 36004KT 04/M04 A3036 RMK A01 T00411044  RH  054%=      5-min Rain = 0
KASU 100105Z 00005KT 05/M05 A3036 RMK A01 T00461047  RH  051%=      5-min Rain = 0
KASU 100110Z 00005KT 05/M05 A3036 RMK A01 T00461048  RH  051%=      5-min Rain = 0
KASU 100115Z 36005KT 04/M05 A3037 RMK A01 T00431049  RH  051%=      5-min Rain = 0
KASU 100120Z 36005KT 04/M05 A3037 RMK A01 T00401048  RH  053%=      5-min Rain = 0
KASU 100125Z 00005KT 04/M05 A3037 RMK A01 T00401049  RH  053%=      5-min Rain = 0
KASU 100130Z 36005KT 04/M05 A3037 RMK A01 T00401048  RH  053%=      5-min Rain = 0
KASU 100135Z 36004KT 04/M05 A3037 RMK A01 T00381046  RH  054%=      5-min Rain = 0
KASU 100140Z 36004KT 03/M04 A3037 RMK A01 T00251042  RH  061%=      5-min Rain = 0
KASU 100145Z 00005KT 03/M04 A3037 RMK A01 T00261042  RH  061%=      5-min Rain = 0
KASU 100150Z 01004KT 03/M05 A3037 RMK A01 T00321045  RH  057%=      5-min Rain = 0
KASU 100155Z 00004KT 03/M05 A3037 RMK A01 T00331047  RH  056%=      5-min Rain = 0
KASU 100200Z 00004KT 03/M05 A3037 RMK A01 T00321047  RH  056%=      5-min Rain = 0
KASU 100205Z 00004KT 03/M05 A3038 RMK A01 T00321048  RH  056%=      5-min Rain = 0
KASU 100210Z 36003KT 03/M05 A3038 RMK A01 T00291047  RH  058%=      5-min Rain = 0
KASU 100215Z 35003KT 02/M05 A3038 RMK A01 T00191045  RH  063%=      5-min Rain = 0
KASU 100220Z 35004KT 02/M04 A3038 RMK A01 T00151044  RH  065%=      5-min Rain = 0
KASU 100225Z 00004KT 02/M04 A3038 RMK A01 T00151043  RH  066%=      5-min Rain = 0
KASU 100230Z 01004KT 02/M04 A3038 RMK A01 T00171042  RH  065%=      5-min Rain = 0
KASU 100235Z 01004KT 02/M04 A3038 RMK A01 T00231042  RH  062%=      5-min Rain = 0
KASU 100240Z 00005KT 03/M04 A3038 RMK A01 T00261043  RH  061%=      5-min Rain = 0
KASU 100245Z 36005KT 03/M04 A3038 RMK A01 T00261042  RH  061%=      5-min Rain = 0
KASU 100250Z 36005KT 02/M04 A3039 RMK A01 T00191042  RH  064%=      5-min Rain = 0
KASU 100255Z 34004KT 01/M04 A3039 RMK A01 T00101042  RH  068%=      5-min Rain = 0
KASU 100300Z 33003KT 01/M04 A3039 RMK A01 T00061041  RH  071%=      5-min Rain = 0
KASU 100305Z 33003KT 00/M04 A3039 RMK A01 T00041040  RH  072%=      5-min Rain = 0
KASU 100310Z 32003KT 00/M04 A3039 RMK A01 T00031041  RH  073%=      5-min Rain = 0
KASU 100315Z 31002KT 00/M04 A3039 RMK A01 T00031040  RH  073%=      5-min Rain = 0
KASU 100320Z 30002KT 00/M04 A3039 RMK A01 T00031040  RH  073%=      5-min Rain = 0
KASU 100325Z 27002KT M00/M04 A3039 RMK A01 T10041044  RH  075%=      5-min Rain = 0
KASU 100330Z 27003KT M01/M04 A3039 RMK A01 T10071042  RH  077%=      5-min Rain = 0
KASU 100335Z 29003KT M01/M04 A3039 RMK A01 T10051038  RH  079%=      5-min Rain = 0
KASU 100340Z 30004KT M00/M04 A3039 RMK A01 T10021036  RH  078%=      5-min Rain = 0
KASU 100345Z 28004KT M01/M04 A3039 RMK A01 T10051039  RH  078%=      5-min Rain = 0
KASU 100350Z 29003KT M01/M04 A3039 RMK A01 T10051040  RH  078%=      5-min Rain = 0
KASU 100355Z 28003KT M00/M04 A3039 RMK A01 T10041041  RH  077%=      5-min Rain = 0
KASU 100400Z 28003KT M01/M04 A3039 RMK A01 T10051042  RH  076%=      5-min Rain = 0
KASU 100405Z 29003KT M01/M04 A3039 RMK A01 T10051042  RH  076%=      5-min Rain = 0
KASU 100410Z 29003KT M00/M04 A3039 RMK A01 T10041042  RH  076%=      5-min Rain = 0
KASU 100415Z 29003KT M00/M04 A3039 RMK A01 T10031043  RH  075%=      5-min Rain = 0
KASU 100420Z 30003KT M00/M04 A3039 RMK A01 T10021043  RH  074%=      5-min Rain = 0
KASU 100425Z 30004KT M00/M05 A3039 RMK A01 T10041045  RH  074%=      5-min Rain = 0
KASU 100430Z 30004KT M01/M05 A304 RMK A01 T10071045  RH  076%=      5-min Rain = 0
KASU 100435Z 31005KT M01/M05 A304 RMK A01 T10081045  RH  076%=      5-min Rain = 0
KASU 100440Z 30004KT M01/M04 A304 RMK A01 T10081043  RH  077%=      5-min Rain = 0
KASU 100445Z 29004KT M01/M04 A304 RMK A01 T10051043  RH  076%=      5-min Rain = 0
KASU 100450Z 30004KT M01/M05 A304 RMK A01 T10071045  RH  076%=      5-min Rain = 0
KASU 100455Z 30004KT M01/M04 A304 RMK A01 T10061044  RH  076%=      5-min Rain = 0
KASU 100500Z 31004KT M01/M05 A304 RMK A01 T10071045  RH  076%=      5-min Rain = 0
KASU 100505Z 31004KT M01/M04 A304 RMK A01 T10071044  RH  076%=      5-min Rain = 0
KASU 100510Z 31004KT M01/M05 A304 RMK A01 T10091046  RH  077%=      5-min Rain = 0
KASU 100515Z 31003KT M01/M05 A3041 RMK A01 T10111046  RH  077%=      5-min Rain = 0
KASU 100520Z 30003KT M01/M04 A304 RMK A01 T10101044  RH  078%=      5-min Rain = 0
KASU 100525Z 29004KT M01/M04 A304 RMK A01 T10081043  RH  077%=      5-min Rain = 0
KASU 100530Z 29004KT M01/M05 A304 RMK A01 T10111047  RH  077%=      5-min Rain = 0
KASU 100535Z 30004KT M01/M05 A304 RMK A01 T10131047  RH  078%=      5-min Rain = 0
KASU 100540Z 30004KT M01/M05 A304 RMK A01 T10141047  RH  079%=      5-min Rain = 0
KASU 100545Z 30004KT M01/M05 A304 RMK A01 T10141046  RH  079%=      5-min Rain = 0
KASU 100550Z 30004KT M01/M05 A304 RMK A01 T10141046  RH  079%=      5-min Rain = 0
KASU 100555Z 31005KT M01/M05 A304 RMK A01 T10141046  RH  079%=      5-min Rain = 0

Page generated in 0.0088 seconds.